createdAt,value
2023-03-03T00:00:37.581Z,99.99
2023-03-03T00:01:37.596Z,99.99
2023-03-03T00:02:37.636Z,99.99
2023-03-03T00:03:37.655Z,99.99
2023-03-03T00:04:37.645Z,99.99
2023-03-03T00:05:37.661Z,99.99
2023-03-03T00:06:37.676Z,99.99
2023-03-03T00:07:37.694Z,99.99
2023-03-03T00:08:37.720Z,99.99
2023-03-03T00:09:37.731Z,99.99
2023-03-03T00:10:37.745Z,99.99
2023-03-03T00:11:37.757Z,99.99
2023-03-03T00:12:37.779Z,99.99
2023-03-03T00:13:37.792Z,99.99
2023-03-03T00:14:37.808Z,99.99
2023-03-03T00:15:37.903Z,99.99
2023-03-03T00:16:37.843Z,99.99
2023-03-03T00:17:37.860Z,99.99
2023-03-03T00:18:37.870Z,99.99
2023-03-03T00:19:37.887Z,99.99
2023-03-03T00:20:37.905Z,99.99
2023-03-03T00:21:37.921Z,99.99
2023-03-03T00:22:37.973Z,99.99
2023-03-03T00:23:37.961Z,99.99
2023-03-03T00:24:38.014Z,99.99
2023-03-03T00:25:37.990Z,99.99
2023-03-03T00:26:38.010Z,99.99
2023-03-03T00:27:38.021Z,99.99
2023-03-03T00:28:38.035Z,99.99
2023-03-03T00:29:38.062Z,99.99
2023-03-03T00:30:38.070Z,99.99
2023-03-03T00:31:38.082Z,99.99
2023-03-03T00:32:38.103Z,99.99
2023-03-03T00:33:38.127Z,99.99
2023-03-03T00:34:38.142Z,99.99
2023-03-03T00:35:38.169Z,99.99
2023-03-03T00:36:38.172Z,99.99
2023-03-03T00:37:38.201Z,99.99
2023-03-03T00:38:38.200Z,99.99
2023-03-03T00:39:38.242Z,99.99
2023-03-03T00:40:38.300Z,99.99
2023-03-03T00:41:38.250Z,99.99
2023-03-03T00:42:38.268Z,99.99
2023-03-03T00:43:38.290Z,99.99
2023-03-03T00:44:38.301Z,99.99
2023-03-03T00:45:38.313Z,99.99
2023-03-03T00:46:38.344Z,99.99
2023-03-03T00:47:38.350Z,99.99
2023-03-03T00:48:38.371Z,99.99
2023-03-03T00:49:38.387Z,99.99
2023-03-03T00:50:38.403Z,99.99
2023-03-03T00:51:38.419Z,99.99
2023-03-03T00:52:38.436Z,99.99
2023-03-03T00:53:38.453Z,99.99
2023-03-03T00:54:38.484Z,99.99
2023-03-03T00:55:38.482Z,99.99
2023-03-03T00:56:38.511Z,99.99
2023-03-03T00:57:38.519Z,99.99
2023-03-03T00:58:38.541Z,99.99
2023-03-03T00:59:38.548Z,99.99
2023-03-03T01:00:38.568Z,99.99
2023-03-03T01:01:38.646Z,99.99
2023-03-03T01:02:38.646Z,99.99
2023-03-03T01:03:38.616Z,99.99
2023-03-03T01:04:38.631Z,99.99
2023-03-03T01:05:38.652Z,99.99
2023-03-03T01:06:38.670Z,99.99
2023-03-03T01:07:38.701Z,99.99
2023-03-03T01:08:38.695Z,99.99
2023-03-03T01:09:38.715Z,99.99
2023-03-03T01:10:38.738Z,99.99
2023-03-03T01:11:38.746Z,99.99
2023-03-03T01:12:38.761Z,99.99
2023-03-03T01:13:38.788Z,99.99
2023-03-03T01:14:38.797Z,99.99
2023-03-03T01:15:38.825Z,99.99
2023-03-03T01:16:38.826Z,99.99
2023-03-03T01:17:38.847Z,99.99
2023-03-03T01:18:38.861Z,99.99
2023-03-03T01:19:38.889Z,99.99
2023-03-03T01:20:38.906Z,99.99
2023-03-03T01:21:38.915Z,99.99
2023-03-03T01:22:38.959Z,99.99
2023-03-03T01:23:38.955Z,99.99
2023-03-03T01:24:38.960Z,99.99
2023-03-03T01:25:38.982Z,99.99
2023-03-03T01:26:39.009Z,99.99
2023-03-03T01:27:39.012Z,99.99
2023-03-03T01:28:39.029Z,99.99
2023-03-03T01:29:39.048Z,99.99
2023-03-03T01:30:39.061Z,99.99
2023-03-03T01:31:39.118Z,99.99
2023-03-03T01:32:39.102Z,99.99
2023-03-03T01:33:39.115Z,99.99
2023-03-03T01:34:39.127Z,99.99
2023-03-03T01:35:39.154Z,99.99
2023-03-03T01:36:39.160Z,99.99
2023-03-03T01:37:39.183Z,99.99
2023-03-03T01:38:39.198Z,99.99
2023-03-03T01:39:39.213Z,99.99
2023-03-03T01:40:39.227Z,99.99
2023-03-03T01:41:39.264Z,99.99
2023-03-03T01:42:39.258Z,99.99
2023-03-03T01:43:39.273Z,99.99
2023-03-03T01:44:39.292Z,99.99
2023-03-03T01:45:39.308Z,99.99
2023-03-03T01:46:39.411Z,99.99
2023-03-03T01:47:39.339Z,99.99
2023-03-03T01:48:39.365Z,99.99
2023-03-03T01:49:39.382Z,99.99
2023-03-03T01:50:39.395Z,99.99
2023-03-03T01:51:39.409Z,99.99
2023-03-03T01:52:39.426Z,99.99
2023-03-03T01:53:39.462Z,99.99
2023-03-03T01:54:39.455Z,99.99
2023-03-03T01:55:39.489Z,99.99
2023-03-03T01:56:39.494Z,99.99
2023-03-03T01:57:39.506Z,99.99
2023-03-03T01:58:39.521Z,99.99
2023-03-03T01:59:39.539Z,99.99
2023-03-03T02:00:39.556Z,99.99
2023-03-03T02:01:39.628Z,99.99
2023-03-03T02:02:39.626Z,99.99
2023-03-03T02:03:39.609Z,99.99
2023-03-03T02:04:39.624Z,99.99
2023-03-03T02:05:39.648Z,99.99
2023-03-03T02:06:39.682Z,99.99
2023-03-03T02:07:39.673Z,99.99
2023-03-03T02:08:39.685Z,99.99
2023-03-03T02:09:39.704Z,99.99
2023-03-03T02:10:39.720Z,99.99
2023-03-03T02:11:39.734Z,99.99
2023-03-03T02:12:39.755Z,99.99
2023-03-03T02:13:39.772Z,99.99
2023-03-03T02:14:39.800Z,99.99
2023-03-03T02:15:39.805Z,99.99
2023-03-03T02:16:39.824Z,99.99
2023-03-03T02:17:39.851Z,99.99
2023-03-03T02:18:39.867Z,99.99
2023-03-03T02:19:39.874Z,99.99
2023-03-03T02:20:39.890Z,99.99
2023-03-03T02:21:39.909Z,99.99
2023-03-03T02:22:39.932Z,99.99
2023-03-03T02:23:39.940Z,99.99
2023-03-03T02:24:39.958Z,99.99
2023-03-03T02:25:39.990Z,99.99
2023-03-03T02:26:39.999Z,99.99
2023-03-03T02:27:40.006Z,99.99
2023-03-03T02:28:40.017Z,99.99
2023-03-03T02:29:40.053Z,99.99
2023-03-03T02:30:40.064Z,99.99
2023-03-03T02:31:40.171Z,99.99
2023-03-03T02:32:40.177Z,99.99
2023-03-03T02:33:40.107Z,99.99
2023-03-03T02:34:40.123Z,99.99
2023-03-03T02:35:40.155Z,99.99
2023-03-03T02:36:40.157Z,99.99
2023-03-03T02:37:40.175Z,99.99
2023-03-03T02:38:40.192Z,99.99
2023-03-03T02:39:40.207Z,99.99
2023-03-03T02:40:40.224Z,99.99
2023-03-03T02:41:40.244Z,99.99
2023-03-03T02:42:40.258Z,99.99
2023-03-03T02:43:40.277Z,99.99
2023-03-03T02:44:40.298Z,99.99
2023-03-03T02:45:40.390Z,99.99
2023-03-03T02:46:40.326Z,99.99
2023-03-03T02:47:40.345Z,99.99
2023-03-03T02:48:40.351Z,99.99
2023-03-03T02:49:40.370Z,99.99
2023-03-03T02:50:40.384Z,99.99
2023-03-03T02:51:40.401Z,99.99
2023-03-03T02:52:40.414Z,99.99
2023-03-03T02:53:40.432Z,99.99
2023-03-03T02:54:40.457Z,99.99
2023-03-03T02:55:40.473Z,99.99
2023-03-03T02:56:40.482Z,99.99
2023-03-03T02:57:40.509Z,99.99
2023-03-03T02:58:40.511Z,99.99
2023-03-03T02:59:40.531Z,99.99
2023-03-03T03:00:40.602Z,99.99
2023-03-03T03:01:40.562Z,99.99
2023-03-03T03:02:40.573Z,99.99
2023-03-03T03:03:40.592Z,99.99
2023-03-03T03:04:40.678Z,99.99
2023-03-03T03:05:40.646Z,99.99
2023-03-03T03:06:40.638Z,99.99
2023-03-03T03:07:40.655Z,99.99
2023-03-03T03:08:40.673Z,99.99
2023-03-03T03:09:40.689Z,99.99
2023-03-03T03:10:40.703Z,99.99
2023-03-03T03:11:40.717Z,99.99
2023-03-03T03:12:40.737Z,99.99
2023-03-03T03:13:40.758Z,99.99
2023-03-03T03:14:40.772Z,99.99
2023-03-03T03:15:40.785Z,99.99
2023-03-03T03:16:40.859Z,99.99
2023-03-03T03:17:40.820Z,99.99
2023-03-03T03:18:40.835Z,99.99
2023-03-03T03:19:40.853Z,99.99
2023-03-03T03:20:40.868Z,99.99
2023-03-03T03:21:40.889Z,99.99
2023-03-03T03:22:40.898Z,99.99
2023-03-03T03:23:40.930Z,99.99
2023-03-03T03:24:40.933Z,99.99
2023-03-03T03:25:40.950Z,99.99
2023-03-03T03:26:40.969Z,99.99
2023-03-03T03:27:40.983Z,99.99
2023-03-03T03:28:41.024Z,99.99
2023-03-03T03:29:41.020Z,99.99
2023-03-03T03:30:41.083Z,99.99
2023-03-03T03:31:41.048Z,99.99
2023-03-03T03:32:41.065Z,99.99
2023-03-03T03:33:41.089Z,99.99
2023-03-03T03:34:41.098Z,99.99
2023-03-03T03:35:41.145Z,99.99
2023-03-03T03:36:41.134Z,99.99
2023-03-03T03:37:41.153Z,99.99
2023-03-03T03:38:41.182Z,99.99
2023-03-03T03:39:41.184Z,99.99
2023-03-03T03:40:41.199Z,99.99
2023-03-03T03:41:41.219Z,99.99
2023-03-03T03:42:41.229Z,99.99
2023-03-03T03:43:41.261Z,99.99
2023-03-03T03:44:41.273Z,99.99
2023-03-03T03:45:41.285Z,99.99
2023-03-03T03:46:41.293Z,99.99
2023-03-03T03:47:41.314Z,99.99
2023-03-03T03:48:41.355Z,99.99
2023-03-03T03:49:41.344Z,99.99
2023-03-03T03:50:41.360Z,99.99
2023-03-03T03:51:41.524Z,99.99
2023-03-03T03:52:41.394Z,99.99
2023-03-03T03:53:41.412Z,99.99
2023-03-03T03:54:41.428Z,99.99
2023-03-03T03:55:41.451Z,99.99
2023-03-03T03:56:41.462Z,99.99
2023-03-03T03:57:41.479Z,99.99
2023-03-03T03:58:41.493Z,99.99
2023-03-03T03:59:41.512Z,99.99
2023-03-03T04:00:41.532Z,99.99
2023-03-03T04:01:41.546Z,99.99
2023-03-03T04:02:41.707Z,99.99
2023-03-03T04:03:41.583Z,99.99
2023-03-03T04:04:41.606Z,99.99
2023-03-03T04:05:41.612Z,99.99
2023-03-03T04:06:41.641Z,99.99
2023-03-03T04:07:41.647Z,99.99
2023-03-03T04:08:41.667Z,99.99
2023-03-03T04:09:41.695Z,99.99
2023-03-03T04:10:41.696Z,99.99
2023-03-03T04:11:41.712Z,99.99
2023-03-03T04:12:41.731Z,99.99
2023-03-03T04:13:41.744Z,99.99
2023-03-03T04:14:41.758Z,99.99
2023-03-03T04:15:41.806Z,99.99
2023-03-03T04:16:41.794Z,99.99
2023-03-03T04:17:41.823Z,99.99
2023-03-03T04:18:41.829Z,99.99
2023-03-03T04:19:41.851Z,99.99
2023-03-03T04:20:41.881Z,99.99
2023-03-03T04:21:41.877Z,99.99
2023-03-03T04:22:41.890Z,99.99
2023-03-03T04:23:41.914Z,99.99
2023-03-03T04:24:41.940Z,99.99
2023-03-03T04:25:41.944Z,99.99
2023-03-03T04:26:41.956Z,99.99
2023-03-03T04:27:41.985Z,99.99
2023-03-03T04:28:41.991Z,99.99
2023-03-03T04:29:42.025Z,99.99
2023-03-03T04:30:42.076Z,99.99
2023-03-03T04:31:42.046Z,99.99
2023-03-03T04:32:42.059Z,99.99
2023-03-03T04:33:42.080Z,99.99
2023-03-03T04:34:42.092Z,99.99
2023-03-03T04:35:42.143Z,99.99
2023-03-03T04:36:42.133Z,99.99
2023-03-03T04:37:42.140Z,99.99
2023-03-03T04:38:42.156Z,99.99
2023-03-03T04:39:42.170Z,99.99
2023-03-03T04:40:42.184Z,99.99
2023-03-03T04:41:42.212Z,99.99
2023-03-03T04:42:42.227Z,99.99
2023-03-03T04:43:42.234Z,99.99
2023-03-03T04:44:42.254Z,99.99
2023-03-03T04:45:42.289Z,99.99
2023-03-03T04:46:42.310Z,99.99
2023-03-03T04:47:42.302Z,99.99
2023-03-03T04:48:42.319Z,99.99
2023-03-03T04:49:42.336Z,99.99
2023-03-03T04:50:42.354Z,99.99
2023-03-03T04:51:42.365Z,99.99
2023-03-03T04:52:42.385Z,99.99
2023-03-03T04:53:42.415Z,99.99
2023-03-03T04:54:42.417Z,99.99
2023-03-03T04:55:42.431Z,99.99
2023-03-03T04:56:42.457Z,99.99
2023-03-03T04:57:42.466Z,99.99
2023-03-03T04:58:42.485Z,99.99
2023-03-03T04:59:42.499Z,99.99
2023-03-03T05:00:42.512Z,99.99
2023-03-03T05:01:42.577Z,99.99
2023-03-03T05:02:42.559Z,99.99
2023-03-03T05:03:42.561Z,99.99
2023-03-03T05:04:42.610Z,99.99
2023-03-03T05:05:42.603Z,99.99
2023-03-03T05:06:42.606Z,99.99
2023-03-03T05:07:42.622Z,99.99
2023-03-03T05:08:42.641Z,99.99
2023-03-03T05:09:42.658Z,99.99
2023-03-03T05:10:42.671Z,99.99
2023-03-03T05:11:42.686Z,99.99
2023-03-03T05:12:42.700Z,99.99
2023-03-03T05:13:42.737Z,99.99
2023-03-03T05:14:42.875Z,99.99
2023-03-03T05:15:43.388Z,99.99
2023-03-03T05:16:42.768Z,99.99
2023-03-03T05:17:42.782Z,99.99
2023-03-03T05:18:42.792Z,99.99
2023-03-03T05:19:42.814Z,99.99
2023-03-03T05:20:42.832Z,99.99
2023-03-03T05:21:43.024Z,99.99
2023-03-03T05:22:42.857Z,99.99
2023-03-03T05:23:42.879Z,99.99
2023-03-03T05:24:42.906Z,99.99
2023-03-03T05:25:42.926Z,99.99
2023-03-03T05:26:42.940Z,99.99
2023-03-03T05:27:42.940Z,99.99
2023-03-03T05:28:42.958Z,99.99
2023-03-03T05:29:42.972Z,99.99
2023-03-03T05:30:43.001Z,99.99
2023-03-03T05:31:45.472Z,99.99
2023-03-03T05:32:43.026Z,99.99
2023-03-03T05:33:43.044Z,99.99
2023-03-03T05:34:43.058Z,99.99
2023-03-03T05:35:43.158Z,99.99
2023-03-03T05:36:43.089Z,99.99
2023-03-03T05:37:43.102Z,99.99
2023-03-03T05:38:43.121Z,99.99
2023-03-03T05:39:43.134Z,99.99
2023-03-03T05:40:43.147Z,99.99
2023-03-03T05:41:43.166Z,99.99
2023-03-03T05:42:43.210Z,99.99
2023-03-03T05:43:43.202Z,99.99
2023-03-03T05:44:43.218Z,99.99
2023-03-03T05:45:43.232Z,99.99
2023-03-03T05:46:43.320Z,99.99
2023-03-03T05:47:43.269Z,99.99
2023-03-03T05:48:43.278Z,99.99
2023-03-03T05:49:43.294Z,99.99
2023-03-03T05:50:43.311Z,99.99
2023-03-03T05:51:43.336Z,99.99
2023-03-03T05:52:43.348Z,99.99
2023-03-03T05:53:43.364Z,99.99
2023-03-03T05:54:43.382Z,99.99
2023-03-03T05:55:43.391Z,99.99
2023-03-03T05:56:43.413Z,99.99
2023-03-03T05:57:43.427Z,99.99
2023-03-03T05:58:43.443Z,99.99
2023-03-03T05:59:43.461Z,99.99
2023-03-03T06:00:43.477Z,99.99
2023-03-03T06:01:43.497Z,99.99
2023-03-03T06:02:43.536Z,99.99
2023-03-03T06:03:43.527Z,99.99
2023-03-03T06:04:43.549Z,99.99
2023-03-03T06:05:43.556Z,99.99
2023-03-03T06:06:43.577Z,99.99
2023-03-03T06:07:43.609Z,99.99
2023-03-03T06:08:43.616Z,99.99
2023-03-03T06:09:43.630Z,99.99
2023-03-03T06:10:43.672Z,99.99
2023-03-03T06:11:43.654Z,99.99
2023-03-03T06:12:43.671Z,99.99
2023-03-03T06:13:43.688Z,99.99
2023-03-03T06:14:43.706Z,99.99
2023-03-03T06:15:43.791Z,99.99
2023-03-03T06:16:43.787Z,99.99
2023-03-03T06:17:43.760Z,99.99
2023-03-03T06:18:43.764Z,99.99
2023-03-03T06:19:43.782Z,99.99
2023-03-03T06:20:43.806Z,99.99
2023-03-03T06:21:43.816Z,99.99
2023-03-03T06:22:43.831Z,99.99
2023-03-03T06:23:43.844Z,99.99
2023-03-03T06:24:43.866Z,99.99
2023-03-03T06:25:43.883Z,99.99
2023-03-03T06:26:43.906Z,99.99
2023-03-03T06:27:43.911Z,99.99
2023-03-03T06:28:43.957Z,99.99
2023-03-03T06:29:43.950Z,99.99
2023-03-03T06:30:43.959Z,99.99
2023-03-03T06:31:43.994Z,99.99
2023-03-03T06:32:44.030Z,99.99
2023-03-03T06:33:44.003Z,99.99
2023-03-03T06:34:44.027Z,99.99
2023-03-03T06:35:44.068Z,99.99
2023-03-03T06:36:44.055Z,99.99
2023-03-03T06:37:44.069Z,99.99
2023-03-03T06:38:44.086Z,99.99
2023-03-03T06:39:44.101Z,99.99
2023-03-03T06:40:44.119Z,99.99
2023-03-03T06:41:44.138Z,99.99
2023-03-03T06:42:44.154Z,99.99
2023-03-03T06:43:44.166Z,99.99
2023-03-03T06:44:44.181Z,99.99
2023-03-03T06:45:44.213Z,99.99
2023-03-03T06:46:44.214Z,99.99
2023-03-03T06:47:44.256Z,99.99
2023-03-03T06:48:44.247Z,99.99
2023-03-03T06:49:44.271Z,99.99
2023-03-03T06:50:44.285Z,99.99
2023-03-03T06:51:44.304Z,99.99
2023-03-03T06:52:44.310Z,99.99
2023-03-03T06:53:44.390Z,99.99
2023-03-03T06:54:44.342Z,99.99
2023-03-03T06:55:44.381Z,99.99
2023-03-03T06:56:44.378Z,99.99
2023-03-03T06:57:44.403Z,99.99
2023-03-03T06:58:44.409Z,99.99
2023-03-03T06:59:44.423Z,99.99
2023-03-03T07:00:44.535Z,99.99
2023-03-03T07:01:44.460Z,99.99
2023-03-03T07:02:44.490Z,99.99
2023-03-03T07:03:44.521Z,99.99
2023-03-03T07:04:44.511Z,99.99
2023-03-03T07:05:44.552Z,99.99
2023-03-03T07:06:44.571Z,99.99
2023-03-03T07:07:44.598Z,99.99
2023-03-03T07:08:44.576Z,99.99
2023-03-03T07:09:44.596Z,99.99
2023-03-03T07:10:44.619Z,99.99
2023-03-03T07:11:46.571Z,99.99
2023-03-03T07:12:44.642Z,99.99
2023-03-03T07:13:44.665Z,99.99
2023-03-03T07:14:44.676Z,99.99
2023-03-03T07:15:44.696Z,99.99
2023-03-03T07:16:44.761Z,99.99
2023-03-03T07:17:44.734Z,99.99
2023-03-03T07:18:44.739Z,99.99
2023-03-03T07:19:44.761Z,99.99
2023-03-03T07:20:44.836Z,99.99
2023-03-03T07:21:44.802Z,99.99
2023-03-03T07:22:44.821Z,99.99
2023-03-03T07:23:44.848Z,99.99
2023-03-03T07:24:44.841Z,99.99
2023-03-03T07:25:44.855Z,99.99
2023-03-03T07:26:44.874Z,99.99
2023-03-03T07:27:44.895Z,99.99
2023-03-03T07:28:44.907Z,99.99
2023-03-03T07:29:44.927Z,99.99
2023-03-03T07:30:44.959Z,99.99
2023-03-03T07:31:45.773Z,99.99
2023-03-03T07:32:44.980Z,99.99
2023-03-03T07:33:45.002Z,99.99
2023-03-03T07:34:45.007Z,99.99
2023-03-03T07:35:45.134Z,99.99
2023-03-03T07:36:45.041Z,99.99
2023-03-03T07:37:45.061Z,99.99
2023-03-03T07:38:45.079Z,99.99
2023-03-03T07:39:45.091Z,99.99
2023-03-03T07:40:45.134Z,99.99
2023-03-03T07:41:45.124Z,99.99
2023-03-03T07:42:45.142Z,99.99
2023-03-03T07:43:45.168Z,99.99
2023-03-03T07:44:45.173Z,99.99
2023-03-03T07:45:45.214Z,99.99
2023-03-03T07:46:45.208Z,99.99
2023-03-03T07:47:45.222Z,99.99
2023-03-03T07:48:45.242Z,99.99
2023-03-03T07:49:45.256Z,99.99
2023-03-03T07:50:45.272Z,99.99
2023-03-03T07:51:45.289Z,99.99
2023-03-03T07:52:45.307Z,99.99
2023-03-03T07:53:45.330Z,99.99
2023-03-03T07:54:45.342Z,99.99
2023-03-03T07:55:45.356Z,99.99
2023-03-03T07:56:45.389Z,99.99
2023-03-03T07:57:45.389Z,99.99
2023-03-03T07:58:45.406Z,99.99
2023-03-03T07:59:45.426Z,99.99
2023-03-03T08:00:45.484Z,99.99
2023-03-03T08:01:45.457Z,99.99
2023-03-03T08:02:45.476Z,99.99
2023-03-03T08:03:45.493Z,99.99
2023-03-03T08:04:45.576Z,99.99
2023-03-03T08:05:45.544Z,99.99
2023-03-03T08:06:45.541Z,99.99
2023-03-03T08:07:45.558Z,99.99
2023-03-03T08:08:45.575Z,99.99
2023-03-03T08:09:45.594Z,99.99
2023-03-03T08:10:45.623Z,99.99
2023-03-03T08:11:45.630Z,99.99
2023-03-03T08:12:45.633Z,99.99
2023-03-03T08:13:45.654Z,99.99
2023-03-03T08:14:45.669Z,99.99
2023-03-03T08:15:45.714Z,99.99
2023-03-03T08:16:45.700Z,99.99
2023-03-03T08:17:45.715Z,99.99
2023-03-03T08:18:45.730Z,99.99
2023-03-03T08:19:45.745Z,99.99
2023-03-03T08:20:45.760Z,99.99
2023-03-03T08:21:45.781Z,99.99
2023-03-03T08:22:45.792Z,99.99
2023-03-03T08:23:45.808Z,99.99
2023-03-03T08:24:45.826Z,99.99
2023-03-03T08:25:45.843Z,99.99
2023-03-03T08:26:45.853Z,99.99
2023-03-03T08:27:45.874Z,99.99
2023-03-03T08:28:45.889Z,99.99
2023-03-03T08:29:48.396Z,99.99
2023-03-03T08:30:45.997Z,99.99
2023-03-03T08:31:45.982Z,99.99
2023-03-03T08:32:46.077Z,99.99
2023-03-03T08:33:45.984Z,99.99
2023-03-03T08:34:45.992Z,99.99
2023-03-03T08:35:46.162Z,99.99
2023-03-03T08:36:46.028Z,99.99
2023-03-03T08:37:46.042Z,99.99
2023-03-03T08:38:46.058Z,99.99
2023-03-03T08:39:46.102Z,99.99
2023-03-03T08:40:46.088Z,99.99
2023-03-03T08:41:46.130Z,99.99
2023-03-03T08:42:46.128Z,99.99
2023-03-03T08:43:46.140Z,99.99
2023-03-03T08:44:46.161Z,99.99
2023-03-03T08:45:46.181Z,99.99
2023-03-03T08:46:46.253Z,99.99
2023-03-03T08:47:46.214Z,99.99
2023-03-03T08:48:46.240Z,99.99
2023-03-03T08:49:46.265Z,99.99
2023-03-03T08:50:46.266Z,99.99
2023-03-03T08:51:46.282Z,99.99
2023-03-03T08:52:46.302Z,99.99
2023-03-03T08:53:46.318Z,99.99
2023-03-03T08:54:46.337Z,99.99
2023-03-03T08:55:46.356Z,99.99
2023-03-03T08:56:46.372Z,99.99
2023-03-03T08:57:46.392Z,99.99
2023-03-03T08:59:01.317Z,99.99
2023-03-03T08:59:46.429Z,99.99
2023-03-03T09:00:49.243Z,99.99
2023-03-03T09:01:46.536Z,99.99
2023-03-03T09:02:46.475Z,99.99
2023-03-03T09:03:46.494Z,99.99
2023-03-03T09:04:46.538Z,99.99
2023-03-03T09:05:46.540Z,99.99
2023-03-03T09:06:46.549Z,99.99
2023-03-03T09:07:47.931Z,99.99
2023-03-03T09:08:46.584Z,99.67
2023-03-03T09:09:46.605Z,99.77
2023-03-03T09:10:46.618Z,99.20
2023-03-03T09:11:46.638Z,98.21
2023-03-03T09:12:46.662Z,98.06
2023-03-03T09:13:46.674Z,98.49
2023-03-03T09:14:46.700Z,98.16
2023-03-03T09:15:46.706Z,98.06
2023-03-03T09:16:46.732Z,98.11
2023-03-03T09:17:46.745Z,97.78
2023-03-03T09:18:46.762Z,97.87
2023-03-03T09:19:46.781Z,98.06
2023-03-03T09:20:46.802Z,98.16
2023-03-03T09:21:46.820Z,97.97
2023-03-03T09:22:46.836Z,97.73
2023-03-03T09:23:46.858Z,97.54
2023-03-03T09:24:46.874Z,97.45
2023-03-03T09:25:46.904Z,96.41
2023-03-03T09:26:46.918Z,96.22
2023-03-03T09:27:46.951Z,96.55
2023-03-03T09:28:46.946Z,97.02
2023-03-03T09:29:46.983Z,97.54
2023-03-03T09:30:46.992Z,97.35
2023-03-03T09:31:47.071Z,97.54
2023-03-03T09:32:47.039Z,97.73
2023-03-03T09:33:47.049Z,97.83
2023-03-03T09:34:47.064Z,98.02
2023-03-03T09:35:47.141Z,96.59
2023-03-03T09:36:47.094Z,96.64
2023-03-03T09:37:47.115Z,96.17
2023-03-03T09:38:47.135Z,95.88
2023-03-03T09:39:47.148Z,95.79
2023-03-03T09:40:47.198Z,95.41
2023-03-03T09:41:47.190Z,94.84
2023-03-03T09:42:47.209Z,94.56
2023-03-03T09:43:47.228Z,94.37
2023-03-03T09:44:47.247Z,94.18
2023-03-03T09:45:47.266Z,94.18
2023-03-03T09:46:47.345Z,94.27
2023-03-03T09:47:47.302Z,94.27
2023-03-03T09:48:47.325Z,94.56
2023-03-03T09:49:47.343Z,94.46
2023-03-03T09:50:47.371Z,94.08
2023-03-03T09:51:47.378Z,94.08
2023-03-03T09:52:47.397Z,94.18
2023-03-03T09:53:47.418Z,93.80
2023-03-03T09:54:47.437Z,93.23
2023-03-03T09:55:47.458Z,93.41
2023-03-03T09:56:47.483Z,93.51
2023-03-03T09:57:48.466Z,93.04
2023-03-03T09:58:47.559Z,93.41
2023-03-03T09:59:47.531Z,93.41
2023-03-03T10:00:47.553Z,93.04
2023-03-03T10:01:47.585Z,93.41
2023-03-03T10:02:47.622Z,93.23
2023-03-03T10:03:48.018Z,93.41
2023-03-03T10:04:47.628Z,94.08
2023-03-03T10:05:47.646Z,94.46
2023-03-03T10:06:47.662Z,94.27
2023-03-03T10:07:47.683Z,93.61
2023-03-03T10:08:47.704Z,93.51
2023-03-03T10:09:47.722Z,93.41
2023-03-03T10:10:47.745Z,93.99
2023-03-03T10:11:47.767Z,93.41
2023-03-03T10:12:47.780Z,93.23
2023-03-03T10:13:47.820Z,93.51
2023-03-03T10:14:47.818Z,93.41
2023-03-03T10:15:47.853Z,93.04
2023-03-03T10:16:47.911Z,93.41
2023-03-03T10:17:47.872Z,93.23
2023-03-03T10:18:47.893Z,92.85
2023-03-03T10:19:47.915Z,93.32
2023-03-03T10:20:51.098Z,93.51
2023-03-03T10:21:47.955Z,93.80
2023-03-03T10:22:47.970Z,94.08
2023-03-03T10:23:48.533Z,94.08
2023-03-03T10:24:48.015Z,94.56
2023-03-03T10:25:48.460Z,94.37
2023-03-03T10:27:01.453Z,93.89
2023-03-03T10:27:48.065Z,94.08
2023-03-03T10:28:48.126Z,93.89
2023-03-03T10:29:48.109Z,94.18
2023-03-03T10:31:03.586Z,94.37
2023-03-03T10:31:48.204Z,93.61
2023-03-03T10:32:48.402Z,93.61
2023-03-03T10:33:48.299Z,93.41
2023-03-03T10:34:48.199Z,93.04
2023-03-03T10:36:04.668Z,93.32
2023-03-03T10:36:48.240Z,93.32
2023-03-03T10:37:48.260Z,93.32
2023-03-03T10:38:48.279Z,93.41
2023-03-03T10:39:48.304Z,93.61
2023-03-03T10:40:48.320Z,93.51
2023-03-03T10:41:48.338Z,93.32
2023-03-03T10:42:48.352Z,92.76
2023-03-03T10:43:48.372Z,92.28
2023-03-03T10:44:48.392Z,92.18
2023-03-03T10:45:48.457Z,92.85
2023-03-03T10:46:48.433Z,92.66
2023-03-03T10:47:48.482Z,93.32
2023-03-03T10:48:48.470Z,93.32
2023-03-03T10:49:48.491Z,92.85
2023-03-03T10:50:48.520Z,92.47
2023-03-03T10:51:48.533Z,92.28
2023-03-03T10:52:48.547Z,92.18
2023-03-03T10:53:48.562Z,92.28
2023-03-03T10:54:48.596Z,91.80
2023-03-03T10:55:48.609Z,91.71
2023-03-03T10:56:53.436Z,92.28
2023-03-03T10:57:48.643Z,91.99
2023-03-03T10:58:48.763Z,92.28
2023-03-03T10:59:48.681Z,92.04
2023-03-03T11:00:48.710Z,92.04
2023-03-03T11:01:48.741Z,91.66
2023-03-03T11:02:48.747Z,92.42
2023-03-03T11:03:48.761Z,91.85
2023-03-03T11:04:48.796Z,91.75
2023-03-03T11:05:48.800Z,91.47
2023-03-03T11:06:48.821Z,90.62
2023-03-03T11:07:48.859Z,90.62
2023-03-03T11:08:48.865Z,90.71
2023-03-03T11:09:48.877Z,90.71
2023-03-03T11:10:48.899Z,90.52
2023-03-03T11:11:48.917Z,90.71
2023-03-03T11:12:48.969Z,90.52
2023-03-03T11:13:48.959Z,90.05
2023-03-03T11:14:48.976Z,90.33
2023-03-03T11:15:48.998Z,90.33
2023-03-03T11:16:49.106Z,90.33
2023-03-03T11:17:49.041Z,90.14
2023-03-03T11:18:49.058Z,89.48
2023-03-03T11:19:49.080Z,89.58
2023-03-03T11:20:49.106Z,89.29
2023-03-03T11:21:49.117Z,89.29
2023-03-03T11:22:49.164Z,89.10
2023-03-03T11:23:49.162Z,88.62
2023-03-03T11:24:49.178Z,89.00
2023-03-03T11:25:49.202Z,88.43
2023-03-03T11:26:49.219Z,89.00
2023-03-03T11:27:49.236Z,88.62
2023-03-03T11:28:49.258Z,88.06
2023-03-03T11:29:49.280Z,88.15
2023-03-03T11:30:49.310Z,88.81
2023-03-03T11:31:49.320Z,88.53
2023-03-03T11:32:49.340Z,88.53
2023-03-03T11:33:49.361Z,88.24
2023-03-03T11:34:49.378Z,88.24
2023-03-03T11:35:49.482Z,87.49
2023-03-03T11:36:49.431Z,87.30
2023-03-03T11:37:49.440Z,87.39
2023-03-03T11:38:49.461Z,88.06
2023-03-03T11:39:49.488Z,88.15
2023-03-03T11:40:49.519Z,87.58
2023-03-03T11:41:49.525Z,87.77
2023-03-03T11:42:49.539Z,87.39
2023-03-03T11:43:49.566Z,87.49
2023-03-03T11:44:49.600Z,87.68
2023-03-03T11:45:49.748Z,87.72
2023-03-03T11:46:49.631Z,86.58
2023-03-03T11:47:49.643Z,86.68
2023-03-03T11:48:49.665Z,86.39
2023-03-03T11:49:49.687Z,86.39
2023-03-03T11:50:49.705Z,85.82
2023-03-03T11:51:49.734Z,86.01
2023-03-03T11:52:49.742Z,86.11
2023-03-03T11:53:49.770Z,85.72
2023-03-03T11:54:49.805Z,86.01
2023-03-03T11:55:49.808Z,85.82
2023-03-03T11:56:49.827Z,86.20
2023-03-03T11:57:49.843Z,86.77
2023-03-03T11:58:49.868Z,86.87
2023-03-03T11:59:49.886Z,86.82
2023-03-03T12:00:49.901Z,86.82
2023-03-03T12:01:49.931Z,86.05
2023-03-03T12:02:49.984Z,85.58
2023-03-03T12:03:49.973Z,85.30
2023-03-03T12:04:49.992Z,84.91
2023-03-03T12:05:50.049Z,84.16
2023-03-03T12:06:50.056Z,84.25
2023-03-03T12:07:50.048Z,84.44
2023-03-03T12:08:50.079Z,84.16
2023-03-03T12:09:50.108Z,84.91
2023-03-03T12:10:50.121Z,83.78
2023-03-03T12:11:51.685Z,83.97
2023-03-03T12:12:50.158Z,83.68
2023-03-03T12:13:50.180Z,83.59
2023-03-03T12:14:50.214Z,84.44
2023-03-03T12:15:50.261Z,84.82
2023-03-03T12:16:50.240Z,84.82
2023-03-03T12:17:50.764Z,85.01
2023-03-03T12:18:50.288Z,84.91
2023-03-03T12:19:50.306Z,84.72
2023-03-03T12:20:50.328Z,85.11
2023-03-03T12:21:50.403Z,84.91
2023-03-03T12:23:04.464Z,84.72
2023-03-03T12:23:50.392Z,84.44
2023-03-03T12:24:50.419Z,84.63
2023-03-03T12:25:50.465Z,84.63
2023-03-03T12:26:50.468Z,84.44
2023-03-03T12:27:50.480Z,84.34
2023-03-03T12:28:50.497Z,84.82
2023-03-03T12:29:50.524Z,84.91
2023-03-03T12:30:50.539Z,84.16
2023-03-03T12:31:50.570Z,84.68
2023-03-03T12:32:50.599Z,84.87
2023-03-03T12:33:50.607Z,85.16
2023-03-03T12:34:50.634Z,85.44
2023-03-03T12:35:50.934Z,85.06
2023-03-03T12:36:50.678Z,85.16
2023-03-03T12:37:50.684Z,85.06
2023-03-03T12:38:50.724Z,84.97
2023-03-03T12:39:50.732Z,85.25
2023-03-03T12:40:50.747Z,85.06
2023-03-03T12:41:50.766Z,85.44
2023-03-03T12:42:50.790Z,85.77
2023-03-03T12:43:50.810Z,85.44
2023-03-03T12:44:50.828Z,85.49
2023-03-03T12:45:50.849Z,85.11
2023-03-03T12:46:50.895Z,85.11
2023-03-03T12:47:50.892Z,85.30
2023-03-03T12:48:50.909Z,84.72
2023-03-03T12:50:01.208Z,84.72
2023-03-03T12:50:50.957Z,84.53
2023-03-03T12:51:50.978Z,84.49
2023-03-03T12:52:51.005Z,85.01